< < Back
Terminal Aerodrome Forecast


Current Version              Previous Versions:   1  2  3  4  5  6  7  8  9  

Terminal Aerodrome Forecast

097
FTUS42 KMLB 292111 AAA
TAFDAB
TAF AMD
KDAB 292111Z 2921/3018 12008KT P6SM VCSH FEW030 SCT060
     FM300000 20004KT P6SM FEW030 SCT080 BKN250
     FM300600 21003KT P6SM FEW100 SCT250
     FM301400 24005KT P6SM SCT020 SCT100 SCT250=



Latest METAR

992
SAUS80 KWBC 300800
MTRDAB
METAR KDAB 300753Z 00000KT 10SM CLR 24/23 A2997 RMK AO2 SLP148
T02440233


USA.gov is the U.S. government's official web portal to all federal, state and local government web resources and services.